createdAt,value
2022-12-16T00:01:06.712Z,38.80
2022-12-16T00:03:34.942Z,38.80
2022-12-16T00:06:04.845Z,38.84
2022-12-16T00:08:36.514Z,38.98
2022-12-16T00:11:04.125Z,38.78
2022-12-16T00:13:32.600Z,38.87
2022-12-16T00:16:00.261Z,38.85
2022-12-16T00:18:27.825Z,38.66
2022-12-16T00:20:55.576Z,38.69
2022-12-16T00:23:24.359Z,38.84
2022-12-16T00:25:51.986Z,38.87
2022-12-16T00:28:22.495Z,38.59
2022-12-16T00:30:50.020Z,38.65
2022-12-16T00:33:17.679Z,38.42
2022-12-16T00:35:46.120Z,38.67
2022-12-16T00:40:34.445Z,38.51
2022-12-16T00:43:01.961Z,38.54
2022-12-16T00:45:29.519Z,38.60
2022-12-16T00:47:56.979Z,38.53
2022-12-16T00:50:24.441Z,38.31
2022-12-16T00:52:51.867Z,38.46
2022-12-16T00:55:19.560Z,38.59
2022-12-16T00:57:48.301Z,38.43
2022-12-16T01:00:16.727Z,38.31
2022-12-16T01:02:44.949Z,38.54
2022-12-16T01:05:13.496Z,38.56
2022-12-16T01:07:40.984Z,38.46
2022-12-16T01:10:09.374Z,38.44
2022-12-16T01:12:36.997Z,38.47
2022-12-16T01:15:07.073Z,38.48
2022-12-16T01:17:35.190Z,38.44
2022-12-16T01:20:02.838Z,38.22
2022-12-16T01:22:30.816Z,38.26
2022-12-16T01:24:58.256Z,38.22
2022-12-16T01:27:25.672Z,38.07
2022-12-16T01:29:53.074Z,38.19
2022-12-16T01:32:24.156Z,38.17
2022-12-16T01:34:55.081Z,38.40
2022-12-16T01:37:23.158Z,38.27
2022-12-16T01:39:50.784Z,38.14
2022-12-16T01:42:19.492Z,38.19
2022-12-16T01:44:48.251Z,38.13
2022-12-16T01:47:16.858Z,38.22
2022-12-16T01:49:47.339Z,38.23
2022-12-16T01:52:17.115Z,38.22
2022-12-16T01:54:45.772Z,38.18
2022-12-16T01:57:14.239Z,38.15
2022-12-16T01:59:42.667Z,38.12
2022-12-16T02:02:10.443Z,38.03
2022-12-16T02:04:57.978Z,37.96
2022-12-16T02:07:26.733Z,38.00
2022-12-16T02:09:54.219Z,38.02
2022-12-16T02:12:24.326Z,37.84
2022-12-16T02:15:10.405Z,38.03
2022-12-16T02:17:41.803Z,37.98
2022-12-16T02:20:40.178Z,38.06
2022-12-16T02:23:31.288Z,37.97
2022-12-16T02:26:12.970Z,37.75
2022-12-16T02:29:00.507Z,37.64
2022-12-16T02:31:29.996Z,37.97
2022-12-16T02:34:02.987Z,37.90
2022-12-16T02:36:38.670Z,37.79
2022-12-16T02:39:07.313Z,37.70
2022-12-16T02:41:38.742Z,37.87
2022-12-16T02:44:07.265Z,37.77
2022-12-16T02:46:40.760Z,37.66
2022-12-16T02:49:08.511Z,37.81
2022-12-16T02:51:36.243Z,37.83
2022-12-16T02:54:03.806Z,37.62
2022-12-16T02:56:37.024Z,37.62
2022-12-16T02:59:14.858Z,37.74
2022-12-16T03:01:47.327Z,37.70
2022-12-16T03:04:16.736Z,37.74
2022-12-16T03:06:45.546Z,37.57
2022-12-16T03:09:13.764Z,37.52
2022-12-16T03:11:41.249Z,37.59
2022-12-16T03:14:08.680Z,37.70
2022-12-16T03:16:36.191Z,37.69
2022-12-16T03:19:06.667Z,37.58
2022-12-16T03:21:35.616Z,37.65
2022-12-16T03:24:03.227Z,37.63
2022-12-16T03:26:32.296Z,37.47
2022-12-16T03:29:01.541Z,37.45
2022-12-16T03:31:32.593Z,37.47
2022-12-16T03:34:01.168Z,37.48
2022-12-16T03:36:30.782Z,37.44
2022-12-16T03:38:58.183Z,37.45
2022-12-16T03:41:25.613Z,37.70
2022-12-16T03:43:53.450Z,37.28
2022-12-16T03:46:20.951Z,37.44
2022-12-16T03:48:49.784Z,37.43
2022-12-16T03:51:17.290Z,37.39
2022-12-16T03:53:46.100Z,37.43
2022-12-16T03:56:13.795Z,37.34
2022-12-16T03:58:41.360Z,37.39
2022-12-16T04:01:09.321Z,37.43
2022-12-16T04:03:37.189Z,37.19
2022-12-16T04:06:05.081Z,37.35
2022-12-16T04:08:32.514Z,37.42
2022-12-16T04:11:18.830Z,37.36
2022-12-16T04:14:04.209Z,37.40
2022-12-16T04:16:49.492Z,37.33
2022-12-16T04:19:39.265Z,37.20
2022-12-16T04:22:27.201Z,37.21
2022-12-16T04:24:54.660Z,37.41
2022-12-16T04:27:27.560Z,37.21
2022-12-16T04:30:12.906Z,37.08
2022-12-16T04:32:58.059Z,37.27
2022-12-16T04:35:43.371Z,37.34
2022-12-16T04:38:28.549Z,37.20
2022-12-16T04:41:13.811Z,37.12
2022-12-16T04:43:59.598Z,37.14
2022-12-16T04:46:45.097Z,37.02
2022-12-16T04:49:30.334Z,37.04
2022-12-16T04:52:15.724Z,37.11
2022-12-16T04:55:01.188Z,37.23
2022-12-16T04:57:46.459Z,37.00
2022-12-16T05:00:32.867Z,37.03
2022-12-16T05:03:18.225Z,37.07
2022-12-16T05:06:03.285Z,37.08
2022-12-16T05:08:48.574Z,36.94
2022-12-16T05:11:33.816Z,36.95
2022-12-16T05:14:19.141Z,36.92
2022-12-16T05:17:05.793Z,37.11
2022-12-16T05:19:51.004Z,37.06
2022-12-16T05:22:36.295Z,36.93
2022-12-16T05:25:21.464Z,36.87
2022-12-16T05:28:09.376Z,36.90
2022-12-16T05:30:54.908Z,36.79
2022-12-16T05:33:42.267Z,36.87
2022-12-16T05:36:27.484Z,36.76
2022-12-16T05:39:12.771Z,36.78
2022-12-16T05:41:58.092Z,36.78
2022-12-16T05:44:43.140Z,36.66
2022-12-16T05:47:28.315Z,36.61
2022-12-16T05:50:14.900Z,36.78
2022-12-16T05:53:00.148Z,36.86
2022-12-16T05:55:45.305Z,36.77
2022-12-16T05:58:30.778Z,36.64
2022-12-16T06:01:16.047Z,36.64
2022-12-16T06:04:01.393Z,36.79
2022-12-16T06:06:48.002Z,36.75
2022-12-16T06:09:33.305Z,36.56
2022-12-16T06:12:18.550Z,36.46
2022-12-16T06:15:03.690Z,36.67
2022-12-16T06:17:49.084Z,36.61
2022-12-16T06:20:34.250Z,36.45
2022-12-16T06:23:24.095Z,36.44
2022-12-16T06:26:11.003Z,36.44
2022-12-16T06:28:56.364Z,36.55
2022-12-16T06:31:41.603Z,36.50
2022-12-16T06:34:26.936Z,36.16
2022-12-16T06:37:12.153Z,36.13
2022-12-16T06:39:58.853Z,36.35
2022-12-16T06:42:44.049Z,36.97
2022-12-16T06:45:34.455Z,36.97
2022-12-16T06:48:20.266Z,37.02
2022-12-16T06:51:05.643Z,37.14
2022-12-16T06:53:50.877Z,37.09
2022-12-16T06:56:37.578Z,36.94
2022-12-16T06:59:22.866Z,37.32
2022-12-16T07:02:08.304Z,37.20
2022-12-16T07:04:53.502Z,37.52
2022-12-16T07:07:38.822Z,37.41
2022-12-16T07:10:24.767Z,37.24
2022-12-16T07:13:11.303Z,37.31
2022-12-16T07:15:56.628Z,37.41
2022-12-16T07:18:42.077Z,37.34
2022-12-16T07:21:27.426Z,37.37
2022-12-16T07:24:12.927Z,37.56
2022-12-16T07:26:58.169Z,37.15
2022-12-16T07:29:49.889Z,37.15
2022-12-16T07:32:36.245Z,37.19
2022-12-16T07:35:21.496Z,37.20
2022-12-16T07:38:02.882Z,36.94
2022-12-16T07:40:48.334Z,36.87
2022-12-16T07:43:34.310Z,37.21
2022-12-16T07:46:20.859Z,37.08
2022-12-16T07:49:06.091Z,36.84
2022-12-16T07:51:51.489Z,36.75
2022-12-16T07:54:36.899Z,36.69
2022-12-16T07:57:22.273Z,36.98
2022-12-16T08:00:07.611Z,36.85
2022-12-16T08:02:55.207Z,36.72
2022-12-16T08:05:40.942Z,36.67
2022-12-16T08:08:26.245Z,36.65
2022-12-16T08:11:11.526Z,36.74
2022-12-16T08:13:56.976Z,36.47
2022-12-16T08:16:42.304Z,36.46
2022-12-16T08:19:28.564Z,36.73
2022-12-16T08:22:13.967Z,36.71
2022-12-16T08:24:59.353Z,36.73
2022-12-16T08:27:44.644Z,36.42
2022-12-16T08:30:30.469Z,36.47
2022-12-16T08:33:19.575Z,36.59
2022-12-16T08:36:06.271Z,36.68
2022-12-16T08:38:51.599Z,36.68
2022-12-16T08:41:36.900Z,36.63
2022-12-16T08:44:22.371Z,36.50
2022-12-16T08:47:07.717Z,36.40
2022-12-16T08:49:57.682Z,36.41
2022-12-16T08:52:47.929Z,36.46
2022-12-16T08:55:33.432Z,36.65
2022-12-16T08:58:18.720Z,36.23
2022-12-16T09:01:07.570Z,36.35
2022-12-16T09:03:53.229Z,36.24
2022-12-16T09:06:43.525Z,36.32
2022-12-16T09:09:29.492Z,35.98
2022-12-16T09:12:14.925Z,36.17
2022-12-16T09:15:00.252Z,36.19
2022-12-16T09:17:45.674Z,36.30
2022-12-16T09:20:30.957Z,36.34
2022-12-16T09:23:25.518Z,36.32
2022-12-16T09:26:12.125Z,36.24
2022-12-16T09:28:57.568Z,36.35
2022-12-16T09:31:42.721Z,36.35
2022-12-16T09:34:28.035Z,36.25
2022-12-16T09:37:13.392Z,36.07
2022-12-16T09:39:58.714Z,36.04
2022-12-16T09:42:47.615Z,36.02
2022-12-16T09:45:35.118Z,36.18
2022-12-16T09:48:23.514Z,35.96
2022-12-16T09:51:08.873Z,35.93
2022-12-16T09:53:54.733Z,35.95
2022-12-16T09:56:43.926Z,35.97
2022-12-16T09:59:31.472Z,35.94
2022-12-16T10:02:17.086Z,36.20
2022-12-16T10:05:02.388Z,36.04
2022-12-16T10:07:45.009Z,36.13
2022-12-16T10:10:36.558Z,36.08
2022-12-16T10:13:24.395Z,35.95
2022-12-16T10:16:13.965Z,36.02
2022-12-16T10:19:04.649Z,36.00
2022-12-16T10:21:52.514Z,35.96
2022-12-16T10:24:44.050Z,35.91
2022-12-16T10:27:31.218Z,36.04
2022-12-16T10:30:16.205Z,35.89
2022-12-16T10:33:03.985Z,35.83
2022-12-16T10:35:51.530Z,35.99
2022-12-16T10:38:38.751Z,35.90
2022-12-16T10:41:23.980Z,35.68
2022-12-16T10:44:09.421Z,35.85
2022-12-16T10:46:54.362Z,35.76
2022-12-16T10:49:41.895Z,35.67
2022-12-16T10:52:34.198Z,35.55
2022-12-16T10:55:23.207Z,35.50
2022-12-16T10:58:17.084Z,35.36
2022-12-16T11:01:03.832Z,35.24
2022-12-16T11:03:49.692Z,35.57
2022-12-16T11:06:38.754Z,35.55
2022-12-16T11:09:34.952Z,35.41
2022-12-16T11:12:35.703Z,35.50
2022-12-16T11:15:29.110Z,35.68
2022-12-16T11:18:20.889Z,35.59
2022-12-16T11:21:17.280Z,35.66
2022-12-16T11:24:03.854Z,35.74
2022-12-16T11:26:49.041Z,35.52
2022-12-16T11:29:35.352Z,35.79
2022-12-16T11:32:22.230Z,35.80
2022-12-16T11:35:12.159Z,35.78
2022-12-16T11:37:57.474Z,35.99
2022-12-16T11:40:43.932Z,36.05
2022-12-16T11:43:31.136Z,36.32
2022-12-16T11:46:16.419Z,36.96
2022-12-16T11:49:02.824Z,36.70
2022-12-16T11:51:49.108Z,36.81
2022-12-16T11:54:36.018Z,36.84
2022-12-16T11:57:22.522Z,36.94
2022-12-16T12:00:10.465Z,36.88
2022-12-16T12:02:57.770Z,37.10
2022-12-16T12:06:00.635Z,37.10
2022-12-16T12:08:48.719Z,37.24
2022-12-16T12:11:35.793Z,37.22
2022-12-16T12:14:26.506Z,37.64
2022-12-16T12:17:18.249Z,37.46
2022-12-16T12:20:08.518Z,37.64
2022-12-16T12:22:54.803Z,37.38
2022-12-16T12:25:44.122Z,37.45
2022-12-16T12:28:36.055Z,37.16
2022-12-16T12:31:25.400Z,37.41
2022-12-16T12:34:14.992Z,37.72
2022-12-16T12:37:02.800Z,37.51
2022-12-16T12:39:50.245Z,37.45
2022-12-16T12:42:50.226Z,37.40
2022-12-16T12:46:02.343Z,37.38
2022-12-16T12:48:55.864Z,37.43
2022-12-16T12:51:44.355Z,37.31
2022-12-16T12:54:33.714Z,37.42
2022-12-16T12:57:19.149Z,37.22
2022-12-16T13:00:07.160Z,37.20
2022-12-16T13:02:57.648Z,37.27
2022-12-16T13:05:44.039Z,37.35
2022-12-16T13:09:04.555Z,37.32
2022-12-16T13:11:49.920Z,37.29
2022-12-16T13:15:13.038Z,37.28
2022-12-16T13:18:38.281Z,37.27
2022-12-16T13:22:02.023Z,37.12
2022-12-16T13:24:58.501Z,37.08
2022-12-16T13:27:43.812Z,36.92
2022-12-16T13:30:40.443Z,36.99
2022-12-16T13:33:26.862Z,36.98
2022-12-16T13:36:12.537Z,37.24
2022-12-16T13:39:04.601Z,36.86
2022-12-16T13:42:07.777Z,37.03
2022-12-16T13:45:15.219Z,36.97
2022-12-16T13:48:20.507Z,36.94
2022-12-16T13:51:06.260Z,36.87
2022-12-16T13:53:53.017Z,36.83
2022-12-16T13:56:42.973Z,37.15
2022-12-16T13:59:32.973Z,37.21
2022-12-16T14:02:21.494Z,37.11
2022-12-16T14:05:08.680Z,37.24
2022-12-16T14:07:56.939Z,37.31
2022-12-16T14:10:42.275Z,37.37
2022-12-16T14:13:31.095Z,37.56
2022-12-16T14:16:19.757Z,37.55
2022-12-16T14:19:12.945Z,37.82
2022-12-16T14:22:01.132Z,38.02
2022-12-16T14:24:46.585Z,38.19
2022-12-16T14:27:32.970Z,38.13
2022-12-16T14:30:19.971Z,38.22
2022-12-16T14:33:05.310Z,38.50
2022-12-16T14:35:50.578Z,38.65
2022-12-16T14:38:41.511Z,38.75
2022-12-16T14:41:30.287Z,38.67
2022-12-16T14:44:15.627Z,38.86
2022-12-16T14:47:02.102Z,38.74
2022-12-16T14:49:47.884Z,38.83
2022-12-16T14:52:37.292Z,39.09
2022-12-16T14:55:31.085Z,39.10
2022-12-16T14:58:24.525Z,39.16
2022-12-16T15:01:15.563Z,39.18
2022-12-16T15:04:03.715Z,39.11
2022-12-16T15:06:50.612Z,39.21
2022-12-16T15:09:40.362Z,39.25
2022-12-16T15:12:26.108Z,39.49
2022-12-16T15:15:11.209Z,39.46
2022-12-16T15:18:01.901Z,39.36
2022-12-16T15:20:49.310Z,39.51
2022-12-16T15:23:37.173Z,39.41
2022-12-16T15:26:22.318Z,39.50
2022-12-16T15:29:07.747Z,39.47
2022-12-16T15:31:54.085Z,39.48
2022-12-16T15:34:55.371Z,39.70
2022-12-16T15:37:43.051Z,39.64
2022-12-16T15:40:38.570Z,39.51
2022-12-16T15:43:38.395Z,39.54
2022-12-16T15:46:31.829Z,39.61
2022-12-16T15:49:16.732Z,39.72
2022-12-16T15:52:02.387Z,39.50
2022-12-16T15:54:48.963Z,39.73
2022-12-16T15:57:47.540Z,39.89
2022-12-16T16:00:38.628Z,39.76
2022-12-16T16:03:24.057Z,39.90
2022-12-16T16:06:09.172Z,39.79
2022-12-16T16:08:54.400Z,39.95
2022-12-16T16:11:40.878Z,39.77
2022-12-16T16:14:26.266Z,39.90
2022-12-16T16:17:11.681Z,39.95
2022-12-16T16:20:03.051Z,39.85
2022-12-16T16:22:49.019Z,39.89
2022-12-16T16:25:34.349Z,39.74
2022-12-16T16:28:20.809Z,39.81
2022-12-16T16:31:06.133Z,39.75
2022-12-16T16:33:51.084Z,39.76
2022-12-16T16:36:36.377Z,39.77
2022-12-16T16:39:21.725Z,39.68
2022-12-16T16:42:06.879Z,39.71
2022-12-16T16:44:53.307Z,39.81
2022-12-16T16:47:38.433Z,39.75
2022-12-16T16:50:24.657Z,39.83
2022-12-16T16:53:09.969Z,39.78
2022-12-16T16:55:55.135Z,39.70
2022-12-16T16:58:42.261Z,39.78
2022-12-16T17:01:30.331Z,39.79
2022-12-16T17:04:15.882Z,39.71
2022-12-16T17:07:01.221Z,39.83
2022-12-16T17:09:48.773Z,39.76
2022-12-16T17:12:36.907Z,39.66
2022-12-16T17:15:31.351Z,39.70
2022-12-16T17:18:17.844Z,39.90
2022-12-16T17:21:03.193Z,40.17
2022-12-16T17:23:48.416Z,40.17
2022-12-16T17:26:33.745Z,39.95
2022-12-16T17:29:19.105Z,39.94
2022-12-16T17:32:04.371Z,39.83
2022-12-16T17:34:51.018Z,39.93
2022-12-16T17:37:38.239Z,39.83
2022-12-16T17:40:23.975Z,39.94
2022-12-16T17:43:09.317Z,39.91
2022-12-16T17:45:54.539Z,39.75
2022-12-16T17:48:45.326Z,39.77
2022-12-16T17:51:32.255Z,39.83
2022-12-16T17:54:23.673Z,39.85
2022-12-16T17:57:10.455Z,39.74
2022-12-16T17:59:54.687Z,39.65
2022-12-16T18:02:40.340Z,39.77
2022-12-16T18:05:38.793Z,39.68
2022-12-16T18:08:27.863Z,39.77
2022-12-16T18:11:13.149Z,39.86
2022-12-16T18:13:58.330Z,39.70
2022-12-16T18:16:43.781Z,39.68
2022-12-16T18:19:29.760Z,39.81
2022-12-16T18:22:15.062Z,39.59
2022-12-16T18:25:01.629Z,39.52
2022-12-16T18:27:46.974Z,39.60
2022-12-16T18:30:32.396Z,39.62
2022-12-16T18:33:17.428Z,39.53
2022-12-16T18:36:02.865Z,39.61
2022-12-16T18:38:48.011Z,39.37
2022-12-16T18:41:35.565Z,39.68
2022-12-16T18:44:20.892Z,39.41
2022-12-16T18:47:06.113Z,39.39
2022-12-16T18:49:51.301Z,39.66
2022-12-16T18:52:36.474Z,39.55
2022-12-16T18:55:21.683Z,39.37
2022-12-16T18:58:21.140Z,39.38
2022-12-16T19:01:19.252Z,39.60
2022-12-16T19:04:04.340Z,39.41
2022-12-16T19:06:49.769Z,39.33
2022-12-16T19:09:35.021Z,39.39
2022-12-16T19:12:20.201Z,39.24
2022-12-16T19:15:06.784Z,39.25
2022-12-16T19:18:03.666Z,39.37
2022-12-16T19:20:48.913Z,39.09
2022-12-16T19:23:34.577Z,39.15
2022-12-16T19:26:19.851Z,39.13
2022-12-16T19:29:05.193Z,39.12
2022-12-16T19:31:51.962Z,39.18
2022-12-16T19:34:37.130Z,39.14
2022-12-16T19:37:22.392Z,39.15
2022-12-16T19:40:07.818Z,39.19
2022-12-16T19:42:52.996Z,39.21
2022-12-16T19:45:40.897Z,39.13
2022-12-16T19:48:27.704Z,39.23
2022-12-16T19:51:15.615Z,39.07
2022-12-16T19:54:01.201Z,39.09
2022-12-16T19:56:46.475Z,39.04
2022-12-16T19:59:31.716Z,39.00
2022-12-16T20:02:13.268Z,39.09
2022-12-16T20:04:59.759Z,38.82
2022-12-16T20:07:44.931Z,38.94
2022-12-16T20:10:30.203Z,38.97
2022-12-16T20:13:22.854Z,38.83
2022-12-16T20:16:10.180Z,38.90
2022-12-16T20:22:07.459Z,39.01
2022-12-16T20:27:58.667Z,38.74
2022-12-16T20:30:43.878Z,38.66
2022-12-16T20:33:31.152Z,38.80
2022-12-16T20:36:16.400Z,38.86
2022-12-16T20:39:02.849Z,38.80
2022-12-16T20:41:48.286Z,38.70
2022-12-16T20:44:33.593Z,38.69
2022-12-16T20:47:18.916Z,38.79
2022-12-16T20:50:04.171Z,38.73
2022-12-16T20:52:49.347Z,38.52
2022-12-16T20:55:36.073Z,38.68
2022-12-16T20:58:21.456Z,38.56
2022-12-16T21:01:09.661Z,38.62
2022-12-16T21:03:54.894Z,38.64
2022-12-16T21:06:37.859Z,38.68
2022-12-16T21:09:23.117Z,38.60
2022-12-16T21:12:09.619Z,38.64
2022-12-16T21:15:00.989Z,38.44
2022-12-16T21:17:46.322Z,38.56
2022-12-16T21:20:31.595Z,38.37
2022-12-16T21:23:17.843Z,38.50
2022-12-16T21:26:03.294Z,38.53
2022-12-16T21:28:49.837Z,38.44
2022-12-16T21:31:35.149Z,38.40
2022-12-16T21:34:20.372Z,38.52
2022-12-16T21:37:05.661Z,38.26
2022-12-16T21:39:50.834Z,38.43
2022-12-16T21:42:41.063Z,38.49
2022-12-16T21:45:30.436Z,38.25
2022-12-16T21:48:15.768Z,38.49
2022-12-16T21:51:01.027Z,38.35
2022-12-16T21:53:46.647Z,38.33
2022-12-16T21:56:32.047Z,38.45
2022-12-16T21:59:17.255Z,38.28
2022-12-16T22:02:04.561Z,38.47
2022-12-16T22:04:49.656Z,38.34
2022-12-16T22:07:34.924Z,38.27
2022-12-16T22:10:20.448Z,38.44
2022-12-16T22:13:05.773Z,38.37
2022-12-16T22:15:50.978Z,38.40
2022-12-16T22:18:38.468Z,38.36
2022-12-16T22:21:23.606Z,38.22
2022-12-16T22:24:08.897Z,38.39
2022-12-16T22:26:54.091Z,38.32
2022-12-16T22:29:41.632Z,38.39
2022-12-16T22:32:26.993Z,38.30
2022-12-16T22:35:13.486Z,38.40
2022-12-16T22:37:58.724Z,38.41
2022-12-16T22:40:44.077Z,38.47
2022-12-16T22:43:29.356Z,38.45
2022-12-16T22:46:17.983Z,38.29
2022-12-16T22:49:04.616Z,38.39
2022-12-16T22:51:51.191Z,38.30
2022-12-16T22:54:36.880Z,38.41
2022-12-16T22:57:22.129Z,38.43
2022-12-16T23:00:07.452Z,38.35
2022-12-16T23:02:52.757Z,38.37
2022-12-16T23:05:38.925Z,38.33
2022-12-16T23:08:28.061Z,38.43
2022-12-16T23:11:12.518Z,38.35
2022-12-16T23:13:57.814Z,38.28
2022-12-16T23:16:43.124Z,38.49
2022-12-16T23:19:28.398Z,38.34
2022-12-16T23:22:12.882Z,38.51
2022-12-16T23:24:59.380Z,38.46
2022-12-16T23:27:46.869Z,38.40
2022-12-16T23:30:32.213Z,38.48
2022-12-16T23:33:17.435Z,38.35
2022-12-16T23:36:02.751Z,38.47
2022-12-16T23:38:47.844Z,38.43
2022-12-16T23:41:34.333Z,38.51
2022-12-16T23:44:19.631Z,38.35
2022-12-16T23:47:04.819Z,38.43
2022-12-16T23:49:50.040Z,38.60
2022-12-16T23:52:35.245Z,38.45
2022-12-16T23:55:20.549Z,38.36
2022-12-16T23:58:07.140Z,38.49
